createdAt,value
2023-02-11T00:00:40.291Z,580
2023-02-11T00:01:40.302Z,580
2023-02-11T00:03:40.561Z,580
2023-02-11T00:04:40.296Z,568
2023-02-11T00:05:40.292Z,568
2023-02-11T00:06:40.294Z,568
2023-02-11T00:08:40.485Z,568
2023-02-11T00:09:40.290Z,580
2023-02-11T00:10:40.287Z,580
2023-02-11T00:11:40.301Z,580
2023-02-11T00:13:40.533Z,580
2023-02-11T00:14:40.313Z,519
2023-02-11T00:15:40.336Z,519
2023-02-11T00:16:40.345Z,519
2023-02-11T00:18:40.485Z,519
2023-02-11T00:19:40.293Z,592
2023-02-11T00:20:40.316Z,592
2023-02-11T00:21:40.289Z,592
2023-02-11T00:23:40.504Z,592
2023-02-11T00:24:40.289Z,592
2023-02-11T00:25:40.288Z,592
2023-02-11T00:26:40.299Z,592
2023-02-11T00:28:40.478Z,592
2023-02-11T00:29:40.310Z,580
2023-02-11T00:30:40.369Z,580
2023-02-11T00:31:40.469Z,580
2023-02-11T00:33:40.504Z,580
2023-02-11T00:34:40.303Z,614
2023-02-11T00:35:40.336Z,614
2023-02-11T00:36:40.346Z,614
2023-02-11T00:38:40.472Z,614
2023-02-11T00:39:40.296Z,540
2023-02-11T00:40:40.323Z,540
2023-02-11T00:41:40.309Z,540
2023-02-11T00:43:40.501Z,540
2023-02-11T00:44:40.317Z,637
2023-02-11T00:45:40.297Z,637
2023-02-11T00:46:40.368Z,637
2023-02-11T00:48:40.520Z,637
2023-02-11T00:49:40.372Z,689
2023-02-11T00:50:40.285Z,689
2023-02-11T00:51:40.318Z,689
2023-02-11T00:53:40.473Z,689
2023-02-11T00:54:40.326Z,568
2023-02-11T00:55:40.321Z,568
2023-02-11T00:56:40.310Z,568
2023-02-11T00:58:40.475Z,568
2023-02-11T00:59:40.329Z,637
2023-02-11T01:00:40.325Z,637
2023-02-11T01:01:40.369Z,637
2023-02-11T01:03:40.514Z,637
2023-02-11T01:04:40.302Z,568
2023-02-11T01:05:40.365Z,568
2023-02-11T01:06:40.330Z,568
2023-02-11T01:08:40.507Z,568
2023-02-11T01:09:40.331Z,650
2023-02-11T01:10:40.310Z,650
2023-02-11T01:11:40.339Z,650
2023-02-11T01:13:40.513Z,650
2023-02-11T01:14:40.326Z,701
2023-02-11T01:15:40.323Z,701
2023-02-11T01:16:40.382Z,701
2023-02-11T01:18:40.507Z,701
2023-02-11T01:19:40.335Z,650
2023-02-11T01:20:40.314Z,650
2023-02-11T01:21:40.334Z,650
2023-02-11T01:23:40.507Z,650
2023-02-11T01:24:40.329Z,650
2023-02-11T01:25:40.321Z,650
2023-02-11T01:26:40.338Z,650
2023-02-11T01:28:40.585Z,650
2023-02-11T01:29:40.319Z,701
2023-02-11T01:30:40.351Z,701
2023-02-11T01:31:40.379Z,701
2023-02-11T01:33:40.538Z,701
2023-02-11T01:34:40.342Z,714
2023-02-11T01:35:40.404Z,714
2023-02-11T01:36:40.325Z,714
2023-02-11T01:38:40.497Z,714
2023-02-11T01:39:40.309Z,665
2023-02-11T01:40:40.317Z,665
2023-02-11T01:41:40.344Z,665
2023-02-11T01:43:40.523Z,665
2023-02-11T01:44:40.317Z,650
2023-02-11T01:45:40.369Z,650
2023-02-11T01:46:40.374Z,650
2023-02-11T01:48:40.528Z,650
2023-02-11T01:49:40.320Z,714
2023-02-11T01:50:40.330Z,714
2023-02-11T01:51:40.317Z,714
2023-02-11T01:53:40.534Z,714
2023-02-11T01:54:40.342Z,665
2023-02-11T01:55:40.343Z,665
2023-02-11T01:56:40.320Z,665
2023-02-11T01:58:40.542Z,665
2023-02-11T01:59:40.311Z,627
2023-02-11T02:00:40.346Z,627
2023-02-11T02:01:40.495Z,627
2023-02-11T02:03:40.561Z,627
2023-02-11T02:04:40.342Z,640
2023-02-11T02:05:40.332Z,640
2023-02-11T02:06:40.362Z,640
2023-02-11T02:08:40.538Z,640
2023-02-11T02:09:40.358Z,665
2023-02-11T02:10:40.341Z,665
2023-02-11T02:11:40.345Z,665
2023-02-11T02:13:40.509Z,665
2023-02-11T02:14:40.332Z,761
2023-02-11T02:15:40.354Z,761
2023-02-11T02:16:40.382Z,761
2023-02-11T02:18:40.529Z,761
2023-02-11T02:19:40.330Z,747
2023-02-11T02:20:40.324Z,747
2023-02-11T02:21:40.353Z,747
2023-02-11T02:23:40.535Z,747
2023-02-11T02:24:40.346Z,845
2023-02-11T02:25:40.340Z,845
2023-02-11T02:26:40.323Z,845
2023-02-11T02:28:40.544Z,845
2023-02-11T02:29:40.376Z,810
2023-02-11T02:30:40.414Z,810
2023-02-11T02:31:40.404Z,810
2023-02-11T02:33:40.566Z,810
2023-02-11T02:34:40.347Z,797
2023-02-11T02:35:40.356Z,797
2023-02-11T02:36:40.329Z,797
2023-02-11T02:38:40.541Z,797
2023-02-11T02:39:40.354Z,828
2023-02-11T02:40:40.336Z,828
2023-02-11T02:41:40.357Z,828
2023-02-11T02:43:40.531Z,828
2023-02-11T02:44:40.339Z,845
2023-02-11T02:45:40.333Z,845
2023-02-11T02:46:40.430Z,845
2023-02-11T02:48:40.529Z,845
2023-02-11T02:49:40.355Z,828
2023-02-11T02:50:40.363Z,828
2023-02-11T02:51:40.355Z,828
2023-02-11T02:53:40.538Z,828
2023-02-11T02:54:40.331Z,862
2023-02-11T02:55:40.337Z,862
2023-02-11T02:56:40.330Z,862
2023-02-11T02:58:40.545Z,862
2023-02-11T02:59:40.389Z,810
2023-02-11T03:00:40.374Z,810
2023-02-11T03:01:40.362Z,810
2023-02-11T03:03:40.560Z,810
2023-02-11T03:04:40.400Z,828
2023-02-11T03:05:40.379Z,828
2023-02-11T03:06:40.362Z,828
2023-02-11T03:08:40.524Z,828
2023-02-11T03:09:40.368Z,810
2023-02-11T03:10:40.365Z,810
2023-02-11T03:11:40.349Z,810
2023-02-11T03:13:40.554Z,810
2023-02-11T03:14:40.347Z,810
2023-02-11T03:15:40.357Z,810
2023-02-11T03:16:40.393Z,810
2023-02-11T03:18:40.551Z,810
2023-02-11T03:19:40.353Z,845
2023-02-11T03:20:40.438Z,845
2023-02-11T03:21:40.342Z,845
2023-02-11T03:23:40.531Z,845
2023-02-11T03:24:40.341Z,828
2023-02-11T03:25:40.357Z,828
2023-02-11T03:26:40.371Z,828
2023-02-11T03:28:40.585Z,828
2023-02-11T03:29:40.358Z,862
2023-02-11T03:30:40.358Z,862
2023-02-11T03:31:40.447Z,862
2023-02-11T03:33:40.546Z,862
2023-02-11T03:34:40.364Z,845
2023-02-11T03:35:40.377Z,845
2023-02-11T03:36:40.343Z,845
2023-02-11T03:38:40.532Z,845
2023-02-11T03:39:40.358Z,862
2023-02-11T03:40:40.353Z,862
2023-02-11T03:41:40.373Z,862
2023-02-11T03:43:40.560Z,862
2023-02-11T03:44:40.360Z,828
2023-02-11T03:45:40.413Z,828
2023-02-11T03:46:40.355Z,828
2023-02-11T03:48:40.572Z,828
2023-02-11T03:49:40.351Z,828
2023-02-11T03:50:40.380Z,828
2023-02-11T03:51:40.368Z,828
2023-02-11T03:53:40.570Z,828
2023-02-11T03:54:40.385Z,878
2023-02-11T03:55:40.387Z,878
2023-02-11T03:56:40.384Z,878
2023-02-11T03:58:40.539Z,878
2023-02-11T03:59:40.372Z,774
2023-02-11T04:00:40.368Z,774
2023-02-11T04:01:40.371Z,774
2023-02-11T04:03:40.571Z,774
2023-02-11T04:04:40.351Z,653
2023-02-11T04:05:40.426Z,653
2023-02-11T04:06:40.384Z,653
2023-02-11T04:08:40.584Z,653
2023-02-11T04:09:40.392Z,736
2023-02-11T04:10:40.361Z,736
2023-02-11T04:11:40.395Z,736
2023-02-11T04:13:40.561Z,736
2023-02-11T04:14:40.390Z,895
2023-02-11T04:15:40.365Z,895
2023-02-11T04:16:40.450Z,895
2023-02-11T04:18:40.564Z,895
2023-02-11T04:19:40.388Z,862
2023-02-11T04:20:40.362Z,862
2023-02-11T04:21:40.390Z,862
2023-02-11T04:23:40.546Z,862
2023-02-11T04:24:40.417Z,862
2023-02-11T04:25:40.398Z,862
2023-02-11T04:26:40.390Z,862
2023-02-11T04:28:40.577Z,862
2023-02-11T04:29:40.406Z,878
2023-02-11T04:30:40.373Z,878
2023-02-11T04:31:40.421Z,878
2023-02-11T04:33:40.602Z,878
2023-02-11T04:34:40.400Z,862
2023-02-11T04:35:40.364Z,862
2023-02-11T04:36:40.378Z,862
2023-02-11T04:38:40.582Z,862
2023-02-11T04:39:40.405Z,862
2023-02-11T04:40:40.372Z,862
2023-02-11T04:41:40.374Z,862
2023-02-11T04:43:40.596Z,862
2023-02-11T04:44:40.436Z,862
2023-02-11T04:45:40.421Z,862
2023-02-11T04:46:40.428Z,862
2023-02-11T04:48:40.593Z,862
2023-02-11T04:49:40.380Z,845
2023-02-11T04:50:40.415Z,845
2023-02-11T04:51:40.380Z,845
2023-02-11T04:53:40.557Z,845
2023-02-11T04:54:40.421Z,914
2023-02-11T04:55:40.378Z,914
2023-02-11T04:56:40.396Z,914
2023-02-11T04:58:40.575Z,914
2023-02-11T04:59:40.398Z,862
2023-02-11T05:00:40.408Z,862
2023-02-11T05:01:40.459Z,862
2023-02-11T05:03:40.588Z,862
2023-02-11T05:04:40.402Z,878
2023-02-11T05:05:40.415Z,878
2023-02-11T05:06:40.385Z,878
2023-02-11T05:08:40.605Z,878
2023-02-11T05:09:40.374Z,895
2023-02-11T05:12:28.599Z,400
2023-02-11T05:13:28.581Z,400
2023-02-11T05:14:28.572Z,400
2023-02-11T05:15:28.565Z,400
2023-02-11T05:16:28.809Z,400
2023-02-11T05:17:28.586Z,433
2023-02-11T05:18:28.593Z,433
2023-02-11T05:19:28.555Z,433
2023-02-11T05:20:28.583Z,433
2023-02-11T05:21:28.760Z,433
2023-02-11T05:22:28.606Z,433
2023-02-11T05:23:28.616Z,433
2023-02-11T05:24:28.566Z,433
2023-02-11T05:25:28.555Z,433
2023-02-11T05:26:28.787Z,433
2023-02-11T05:27:28.577Z,433
2023-02-11T05:28:28.657Z,433
2023-02-11T05:29:28.579Z,433
2023-02-11T05:30:28.643Z,433
2023-02-11T05:31:28.787Z,433
2023-02-11T05:32:28.586Z,433
2023-02-11T05:33:28.586Z,433
2023-02-11T05:34:28.584Z,433
2023-02-11T05:35:28.645Z,433
2023-02-11T05:36:28.768Z,433
2023-02-11T05:37:28.608Z,459
2023-02-11T05:38:28.606Z,459
2023-02-11T05:39:28.570Z,459
2023-02-11T05:40:28.599Z,459
2023-02-11T05:41:28.771Z,459
2023-02-11T05:42:28.597Z,442
2023-02-11T05:43:28.605Z,442
2023-02-11T05:44:28.589Z,442
2023-02-11T05:45:28.566Z,442
2023-02-11T05:46:28.788Z,442
2023-02-11T05:47:28.600Z,417
2023-02-11T05:48:28.616Z,417
2023-02-11T05:49:28.603Z,417
2023-02-11T05:50:28.622Z,417
2023-02-11T05:51:28.792Z,417
2023-02-11T05:52:28.580Z,417
2023-02-11T05:53:28.612Z,417
2023-02-11T05:54:28.609Z,417
2023-02-11T05:55:28.565Z,417
2023-02-11T05:56:28.793Z,417
2023-02-11T05:57:28.583Z,400
2023-02-11T05:58:28.633Z,400
2023-02-11T05:59:28.571Z,400
2023-02-11T06:00:28.602Z,400
2023-02-11T06:01:28.765Z,400
2023-02-11T06:02:28.670Z,423
2023-02-11T06:03:28.610Z,423
2023-02-11T06:04:28.629Z,423
2023-02-11T06:05:28.573Z,423
2023-02-11T06:06:28.795Z,423
2023-02-11T06:07:28.608Z,407
2023-02-11T06:08:28.607Z,407
2023-02-11T06:09:28.594Z,407
2023-02-11T06:10:28.568Z,407
2023-02-11T06:11:28.806Z,407
2023-02-11T06:12:28.603Z,400
2023-02-11T06:13:28.575Z,400
2023-02-11T06:14:28.571Z,400
2023-02-11T06:15:28.671Z,400
2023-02-11T06:16:28.942Z,400
2023-02-11T06:17:28.620Z,400
2023-02-11T06:18:28.575Z,400
2023-02-11T06:19:28.627Z,400
2023-02-11T06:20:28.608Z,400
2023-02-11T06:21:42.681Z,400
2023-02-11T06:22:28.604Z,400
2023-02-11T06:23:30.399Z,400
2023-02-11T06:24:51.268Z,400
2023-02-11T06:25:28.600Z,400
2023-02-11T06:26:28.809Z,400
2023-02-11T06:27:28.605Z,422
2023-02-11T06:28:28.709Z,422
2023-02-11T06:29:28.611Z,422
2023-02-11T06:30:28.632Z,422
2023-02-11T06:31:28.826Z,422
2023-02-11T06:32:42.556Z,432
2023-02-11T06:33:28.614Z,432
2023-02-11T06:34:28.574Z,432
2023-02-11T06:35:28.614Z,432
2023-02-11T06:36:28.808Z,432
2023-02-11T06:37:28.578Z,432
2023-02-11T06:38:28.603Z,432
2023-02-11T06:39:28.608Z,432
2023-02-11T06:40:28.641Z,432
2023-02-11T06:41:28.811Z,432
2023-02-11T06:42:28.608Z,432
2023-02-11T06:43:28.625Z,432
2023-02-11T06:44:28.633Z,432
2023-02-11T06:45:28.588Z,432
2023-02-11T06:46:28.898Z,432
2023-02-11T06:47:28.586Z,446
2023-02-11T06:48:28.614Z,446
2023-02-11T06:49:28.607Z,446
2023-02-11T06:50:28.599Z,446
2023-02-11T06:51:28.822Z,446
2023-02-11T06:52:28.629Z,455
2023-02-11T06:53:28.621Z,455
2023-02-11T06:54:28.616Z,455
2023-02-11T06:55:28.630Z,455
2023-02-11T06:56:28.804Z,455
2023-02-11T06:57:28.626Z,455
2023-02-11T06:58:28.636Z,455
2023-02-11T06:59:28.616Z,455
2023-02-11T07:00:28.620Z,455
2023-02-11T07:01:28.826Z,455
2023-02-11T07:02:28.675Z,428
2023-02-11T07:03:28.625Z,428
2023-02-11T07:04:28.616Z,428
2023-02-11T07:05:28.605Z,428
2023-02-11T07:06:28.797Z,428
2023-02-11T07:07:28.601Z,400
2023-02-11T07:08:28.602Z,400
2023-02-11T07:09:28.622Z,400
2023-02-11T07:10:28.624Z,400
2023-02-11T07:11:28.791Z,400
2023-02-11T07:12:28.649Z,417
2023-02-11T07:13:28.597Z,417
2023-02-11T07:14:28.595Z,417
2023-02-11T07:15:28.631Z,417
2023-02-11T07:16:28.860Z,417
2023-02-11T07:17:28.633Z,417
2023-02-11T07:18:28.633Z,417
2023-02-11T07:19:28.624Z,417
2023-02-11T07:20:28.594Z,417
2023-02-11T07:21:28.811Z,417
2023-02-11T07:22:28.640Z,456
2023-02-11T07:23:28.623Z,456
2023-02-11T07:24:28.641Z,456
2023-02-11T07:25:28.637Z,456
2023-02-11T07:26:28.862Z,456
2023-02-11T07:27:28.636Z,492
2023-02-11T07:28:28.651Z,492
2023-02-11T07:29:28.624Z,492
2023-02-11T07:30:28.675Z,492
2023-02-11T07:31:29.014Z,492
2023-02-11T07:32:28.590Z,417
2023-02-11T07:33:28.624Z,417
2023-02-11T07:34:28.624Z,417
2023-02-11T07:35:28.631Z,417
2023-02-11T07:36:28.793Z,417
2023-02-11T07:37:28.616Z,426
2023-02-11T07:38:28.599Z,426
2023-02-11T07:39:28.600Z,426
2023-02-11T07:40:28.679Z,426
2023-02-11T07:41:28.808Z,426
2023-02-11T07:42:28.604Z,482
2023-02-11T07:43:28.619Z,482
2023-02-11T07:44:28.650Z,482
2023-02-11T07:45:28.635Z,482
2023-02-11T07:46:28.874Z,482
2023-02-11T07:47:28.640Z,492
2023-02-11T07:48:28.639Z,492
2023-02-11T07:49:28.627Z,492
2023-02-11T07:50:28.636Z,492
2023-02-11T07:51:28.830Z,492
2023-02-11T07:52:28.604Z,473
2023-02-11T07:53:28.630Z,473
2023-02-11T07:54:28.606Z,473
2023-02-11T07:55:28.637Z,473
2023-02-11T07:56:28.809Z,473
2023-02-11T07:57:28.637Z,473
2023-02-11T07:58:28.636Z,473
2023-02-11T07:59:28.641Z,473
2023-02-11T08:00:28.646Z,473
2023-02-11T08:01:28.965Z,473
2023-02-11T08:02:28.672Z,482
2023-02-11T08:03:28.683Z,482
2023-02-11T08:04:28.603Z,482
2023-02-11T08:05:28.634Z,482
2023-02-11T08:06:28.811Z,482
2023-02-11T08:07:28.624Z,492
2023-02-11T08:08:28.634Z,492
2023-02-11T08:09:28.635Z,492
2023-02-11T08:10:28.625Z,492
2023-02-11T08:11:28.878Z,492
2023-02-11T08:12:28.618Z,482
2023-02-11T08:13:28.632Z,482
2023-02-11T08:14:28.641Z,482
2023-02-11T08:15:28.649Z,482
2023-02-11T08:16:28.899Z,482
2023-02-11T08:17:28.635Z,438
2023-02-11T08:18:28.656Z,438
2023-02-11T08:19:28.610Z,438
2023-02-11T08:20:28.644Z,438
2023-02-11T08:21:28.841Z,438
2023-02-11T08:22:28.632Z,482
2023-02-11T08:23:28.648Z,482
2023-02-11T08:24:28.650Z,482
2023-02-11T08:25:28.626Z,482
2023-02-11T08:26:28.873Z,482
2023-02-11T08:27:28.613Z,409
2023-02-11T08:28:28.720Z,409
2023-02-11T08:29:28.622Z,409
2023-02-11T08:30:28.648Z,409
2023-02-11T08:31:28.933Z,409
2023-02-11T08:32:28.625Z,417
2023-02-11T08:33:28.642Z,417
2023-02-11T08:34:28.631Z,417
2023-02-11T08:35:28.643Z,417
2023-02-11T08:36:28.818Z,417
2023-02-11T08:37:29.485Z,400
2023-02-11T08:38:28.610Z,400
2023-02-11T08:39:28.610Z,400
2023-02-11T08:40:28.646Z,400
2023-02-11T08:41:28.840Z,400
2023-02-11T08:42:28.632Z,464
2023-02-11T08:43:28.613Z,464
2023-02-11T08:44:28.622Z,464
2023-02-11T08:45:28.646Z,464
2023-02-11T08:46:28.851Z,464
2023-02-11T08:47:28.629Z,506
2023-02-11T08:48:28.660Z,506
2023-02-11T08:49:28.622Z,506
2023-02-11T08:50:28.650Z,506
2023-02-11T08:51:28.843Z,506
2023-02-11T08:52:28.639Z,455
2023-02-11T08:53:28.650Z,455
2023-02-11T08:54:28.664Z,455
2023-02-11T08:55:28.642Z,455
2023-02-11T08:56:28.847Z,455
2023-02-11T08:57:28.662Z,575
2023-02-11T08:58:28.616Z,575
2023-02-11T08:59:28.622Z,575
2023-02-11T09:00:28.655Z,575
2023-02-11T09:01:28.950Z,575
2023-02-11T09:02:28.686Z,565
2023-02-11T09:03:28.642Z,565
2023-02-11T09:04:28.647Z,565
2023-02-11T09:05:28.627Z,565
2023-02-11T09:06:28.843Z,565
2023-02-11T09:07:28.634Z,552
2023-02-11T09:08:28.651Z,552
2023-02-11T09:09:28.637Z,552
2023-02-11T09:10:28.660Z,552
2023-02-11T09:11:28.835Z,552
2023-02-11T09:12:28.656Z,552
2023-02-11T09:13:28.667Z,552
2023-02-11T09:14:28.627Z,552
2023-02-11T09:15:28.657Z,552
2023-02-11T09:16:28.871Z,552
2023-02-11T09:17:28.656Z,543
2023-02-11T09:18:28.654Z,543
2023-02-11T09:19:28.624Z,543
2023-02-11T09:20:28.650Z,543
2023-02-11T09:21:28.843Z,543
2023-02-11T09:22:28.654Z,508
2023-02-11T09:23:28.669Z,508
2023-02-11T09:24:28.677Z,508
2023-02-11T09:25:28.662Z,508
2023-02-11T09:26:28.856Z,508
2023-02-11T09:27:28.698Z,533
2023-02-11T09:28:28.725Z,533
2023-02-11T09:29:28.678Z,533
2023-02-11T09:30:28.697Z,533
2023-02-11T09:31:28.982Z,533
2023-02-11T09:32:28.666Z,523
2023-02-11T09:33:28.669Z,523
2023-02-11T09:34:28.661Z,523
2023-02-11T09:35:28.671Z,523
2023-02-11T09:36:28.937Z,523
2023-02-11T09:37:28.647Z,523
2023-02-11T09:38:28.672Z,523
2023-02-11T09:39:28.677Z,523
2023-02-11T09:40:28.639Z,523
2023-02-11T09:41:28.838Z,523
2023-02-11T09:42:28.661Z,425
2023-02-11T09:43:28.655Z,425
2023-02-11T09:44:28.715Z,425
2023-02-11T09:45:28.659Z,425
2023-02-11T09:46:28.935Z,425
2023-02-11T09:47:28.666Z,486
2023-02-11T09:48:28.662Z,486
2023-02-11T09:49:28.670Z,486
2023-02-11T09:50:28.676Z,486
2023-02-11T09:51:28.840Z,486
2023-02-11T09:52:28.675Z,508
2023-02-11T09:53:28.674Z,508
2023-02-11T09:54:28.662Z,508
2023-02-11T09:55:28.685Z,508
2023-02-11T09:56:28.870Z,508
2023-02-11T09:57:29.330Z,400
2023-02-11T09:58:28.702Z,400
2023-02-11T09:59:28.717Z,400
2023-02-11T10:00:28.667Z,400
2023-02-11T10:01:28.877Z,400
2023-02-11T10:02:28.681Z,476
2023-02-11T10:03:28.679Z,476
2023-02-11T10:04:28.773Z,476
2023-02-11T10:06:28.861Z,476
2023-02-11T10:07:28.647Z,552
2023-02-11T10:08:28.685Z,552
2023-02-11T10:09:28.678Z,552
2023-02-11T10:10:28.648Z,552
2023-02-11T10:11:31.818Z,552
2023-02-11T10:12:28.695Z,464
2023-02-11T10:13:28.708Z,464
2023-02-11T10:14:28.689Z,464
2023-02-11T10:15:28.715Z,464
2023-02-11T10:16:28.878Z,464
2023-02-11T10:17:28.677Z,436
2023-02-11T10:18:28.651Z,436
2023-02-11T10:19:28.683Z,436
2023-02-11T10:21:28.893Z,436
2023-02-11T10:22:28.664Z,409
2023-02-11T10:23:28.674Z,409
2023-02-11T10:24:28.663Z,409
2023-02-11T10:25:28.681Z,409
2023-02-11T10:26:28.888Z,409
2023-02-11T10:27:28.672Z,400
2023-02-11T10:28:28.706Z,400
2023-02-11T10:29:28.690Z,400
2023-02-11T10:31:28.981Z,400
2023-02-11T10:32:28.694Z,445
2023-02-11T10:33:28.684Z,445
2023-02-11T10:34:28.664Z,445
2023-02-11T10:35:28.670Z,445
2023-02-11T10:36:28.927Z,445
2023-02-11T10:37:28.657Z,473
2023-02-11T10:38:28.664Z,473
2023-02-11T10:39:28.691Z,473
2023-02-11T10:41:28.863Z,473
2023-02-11T10:42:28.692Z,473
2023-02-11T10:43:28.671Z,473
2023-02-11T10:44:28.688Z,473
2023-02-11T10:45:28.695Z,473
2023-02-11T10:46:28.920Z,473
2023-02-11T10:47:28.691Z,473
2023-02-11T10:48:28.691Z,473
2023-02-11T10:49:28.700Z,473
2023-02-11T10:51:28.868Z,473
2023-02-11T10:52:28.696Z,435
2023-02-11T10:53:28.663Z,435
2023-02-11T10:54:28.695Z,435
2023-02-11T10:56:28.874Z,435
2023-02-11T10:57:28.692Z,473
2023-02-11T10:58:28.698Z,473
2023-02-11T10:59:28.690Z,473
2023-02-11T11:01:28.922Z,473
2023-02-11T11:02:28.679Z,400
2023-02-11T11:03:28.710Z,400
2023-02-11T11:04:28.778Z,400
2023-02-11T11:06:28.879Z,400
2023-02-11T11:07:28.683Z,400
2023-02-11T11:08:28.698Z,400
2023-02-11T11:09:28.708Z,400
2023-02-11T11:11:28.902Z,400
2023-02-11T11:12:28.678Z,400
2023-02-11T11:13:28.689Z,400
2023-02-11T11:14:28.707Z,400
2023-02-11T11:16:29.036Z,400
2023-02-11T11:17:28.702Z,400
2023-02-11T11:18:28.712Z,400
2023-02-11T11:19:28.714Z,400
2023-02-11T11:20:28.695Z,400
2023-02-11T11:21:28.905Z,400
2023-02-11T11:22:28.699Z,400
2023-02-11T11:23:28.672Z,400
2023-02-11T11:24:28.719Z,400
2023-02-11T11:26:28.875Z,400
2023-02-11T11:27:28.712Z,400
2023-02-11T11:28:28.730Z,400
2023-02-11T11:29:28.723Z,400
2023-02-11T11:31:29.031Z,400
2023-02-11T11:32:28.735Z,400
2023-02-11T11:33:28.714Z,400
2023-02-11T11:34:28.722Z,400
2023-02-11T11:35:28.677Z,400
2023-02-11T11:36:28.881Z,400
2023-02-11T11:37:28.747Z,400
2023-02-11T11:38:28.690Z,400
2023-02-11T11:39:28.688Z,400
2023-02-11T11:40:28.683Z,400
2023-02-11T11:41:28.870Z,400
2023-02-11T11:42:28.694Z,400
2023-02-11T11:43:28.711Z,400
2023-02-11T11:44:28.692Z,400
2023-02-11T11:46:28.925Z,400
2023-02-11T11:47:28.702Z,409
2023-02-11T11:48:28.705Z,409
2023-02-11T11:49:28.701Z,409
2023-02-11T11:51:28.879Z,409
2023-02-11T11:52:28.711Z,478
2023-02-11T11:53:28.721Z,478
2023-02-11T11:54:28.683Z,478
2023-02-11T11:56:28.881Z,478
2023-02-11T11:57:28.718Z,478
2023-02-11T11:58:28.713Z,478
2023-02-11T11:59:28.680Z,478
2023-02-11T12:01:28.895Z,478
2023-02-11T12:02:28.685Z,424
2023-02-11T12:03:28.809Z,424
2023-02-11T12:04:28.686Z,424
2023-02-11T12:06:28.894Z,424
2023-02-11T12:07:28.730Z,465
2023-02-11T12:08:28.743Z,465
2023-02-11T12:09:28.712Z,465
2023-02-11T12:11:28.918Z,465
2023-02-11T12:12:28.692Z,400
2023-02-11T12:13:28.690Z,400
2023-02-11T12:14:28.725Z,400
2023-02-11T12:16:28.941Z,400
2023-02-11T12:17:28.719Z,400
2023-02-11T12:18:28.744Z,400
2023-02-11T12:19:28.723Z,400
2023-02-11T12:21:28.897Z,400
2023-02-11T12:22:28.726Z,502
2023-02-11T12:23:28.721Z,502
2023-02-11T12:24:28.728Z,502
2023-02-11T12:26:28.897Z,502
2023-02-11T12:27:28.724Z,455
2023-02-11T12:28:28.754Z,455
2023-02-11T12:29:28.745Z,455
2023-02-11T12:31:29.029Z,455
2023-02-11T12:32:28.749Z,455
2023-02-11T12:33:28.721Z,455
2023-02-11T12:34:28.751Z,455
2023-02-11T12:36:28.899Z,455
2023-02-11T12:37:28.737Z,577
2023-02-11T12:38:28.737Z,577
2023-02-11T12:39:28.739Z,577
2023-02-11T12:41:28.924Z,577
2023-02-11T12:42:28.723Z,548
2023-02-11T12:43:28.731Z,548
2023-02-11T12:44:28.741Z,548
2023-02-11T12:46:28.930Z,548
2023-02-11T12:47:28.731Z,518
2023-02-11T12:48:28.738Z,518
2023-02-11T12:49:28.767Z,518
2023-02-11T12:51:28.933Z,518
2023-02-11T12:52:28.750Z,502
2023-02-11T12:53:28.737Z,502
2023-02-11T12:54:28.707Z,502
2023-02-11T12:56:28.942Z,502
2023-02-11T12:57:28.732Z,502
2023-02-11T12:58:39.451Z,502
2023-02-11T12:59:28.716Z,502
2023-02-11T13:01:28.949Z,502
2023-02-11T13:02:28.744Z,561
2023-02-11T13:03:28.747Z,561
2023-02-11T13:04:28.753Z,561
2023-02-11T13:06:28.933Z,561
2023-02-11T13:07:28.746Z,526
2023-02-11T13:08:28.743Z,526
2023-02-11T13:09:28.704Z,526
2023-02-11T13:11:28.955Z,526
2023-02-11T13:12:28.714Z,482
2023-02-11T13:13:28.715Z,482
2023-02-11T13:14:28.744Z,482
2023-02-11T13:16:29.022Z,482
2023-02-11T13:17:28.745Z,552
2023-02-11T13:18:28.753Z,552
2023-02-11T13:19:28.768Z,552
2023-02-11T13:21:28.928Z,552
2023-02-11T13:22:28.790Z,600
2023-02-11T13:23:31.232Z,600
2023-02-11T13:24:28.750Z,600
2023-02-11T13:26:28.948Z,600
2023-02-11T13:27:28.727Z,615
2023-02-11T13:28:28.785Z,615
2023-02-11T13:29:28.726Z,615
2023-02-11T13:31:29.058Z,615
2023-02-11T13:32:28.770Z,629
2023-02-11T13:33:28.781Z,629
2023-02-11T13:34:28.721Z,629
2023-02-11T13:36:28.932Z,629
2023-02-11T13:37:28.760Z,754
2023-02-11T13:38:28.730Z,754
2023-02-11T13:39:28.772Z,754
2023-02-11T13:41:28.925Z,754
2023-02-11T13:42:28.750Z,700
2023-02-11T13:43:28.768Z,700
2023-02-11T13:44:28.758Z,700
2023-02-11T13:46:29.017Z,700
2023-02-11T13:47:28.779Z,629
2023-02-11T13:48:28.740Z,629
2023-02-11T13:49:28.774Z,629
2023-02-11T13:51:28.940Z,629
2023-02-11T13:52:28.768Z,552
2023-02-11T13:53:28.767Z,552
2023-02-11T13:54:28.762Z,552
2023-02-11T13:56:28.952Z,552
2023-02-11T13:57:28.730Z,653
2023-02-11T13:58:28.745Z,653
2023-02-11T13:59:28.741Z,653
2023-02-11T14:01:28.970Z,653
2023-02-11T14:02:28.826Z,700
2023-02-11T14:03:28.777Z,700
2023-02-11T14:04:28.759Z,700
2023-02-11T14:06:28.967Z,700
2023-02-11T14:07:28.772Z,600
2023-02-11T14:08:28.793Z,600
2023-02-11T14:09:28.757Z,600
2023-02-11T14:11:28.947Z,600
2023-02-11T14:12:28.758Z,514
2023-02-11T14:13:28.798Z,514
2023-02-11T14:14:28.776Z,514
2023-02-11T14:16:37.794Z,514
2023-02-11T14:17:28.822Z,537
2023-02-11T14:18:28.769Z,537
2023-02-11T14:19:28.773Z,537
2023-02-11T14:21:28.998Z,537
2023-02-11T14:22:28.755Z,615
2023-02-11T14:23:28.760Z,615
2023-02-11T14:24:28.771Z,615
2023-02-11T14:26:28.979Z,615
2023-02-11T14:27:28.773Z,674
2023-02-11T14:28:28.810Z,674
2023-02-11T14:29:28.790Z,674
2023-02-11T14:31:29.084Z,674
2023-02-11T14:32:28.752Z,540
2023-02-11T14:33:28.761Z,540
2023-02-11T14:34:28.742Z,540
2023-02-11T14:36:28.975Z,540
2023-02-11T14:37:28.795Z,540
2023-02-11T14:38:28.782Z,540
2023-02-11T14:39:28.777Z,540
2023-02-11T14:41:28.968Z,540
2023-02-11T14:42:28.777Z,500
2023-02-11T14:43:29.672Z,500
2023-02-11T14:44:28.788Z,500
2023-02-11T14:46:29.026Z,500
2023-02-11T14:47:28.791Z,488
2023-02-11T14:48:28.789Z,488
2023-02-11T14:49:28.772Z,488
2023-02-11T14:51:28.978Z,488
2023-02-11T14:52:28.786Z,519
2023-02-11T14:53:28.783Z,519
2023-02-11T14:54:28.801Z,519
2023-02-11T14:56:28.978Z,519
2023-02-11T14:57:28.777Z,530
2023-02-11T14:58:28.789Z,530
2023-02-11T14:59:28.801Z,530
2023-02-11T15:01:29.055Z,530
2023-02-11T15:02:28.799Z,505
2023-02-11T15:03:28.785Z,505
2023-02-11T15:04:28.782Z,505
2023-02-11T15:06:29.074Z,505
2023-02-11T15:07:28.788Z,605
2023-02-11T15:08:28.776Z,605
2023-02-11T15:09:28.760Z,605
2023-02-11T15:11:28.961Z,605
2023-02-11T15:12:28.750Z,686
2023-02-11T15:13:28.782Z,686
2023-02-11T15:14:28.785Z,686
2023-02-11T15:16:28.972Z,686
2023-02-11T15:17:28.793Z,572
2023-02-11T15:18:28.790Z,572
2023-02-11T15:19:28.800Z,572
2023-02-11T15:21:28.958Z,572
2023-02-11T15:22:28.781Z,515
2023-02-11T15:23:28.802Z,515
2023-02-11T15:24:28.811Z,515
2023-02-11T15:26:28.963Z,515
2023-02-11T15:27:28.766Z,640
2023-02-11T15:28:29.011Z,640
2023-02-11T15:29:28.760Z,640
2023-02-11T15:31:29.073Z,640
2023-02-11T15:32:28.908Z,618
2023-02-11T15:33:28.767Z,618
2023-02-11T15:34:28.772Z,618
2023-02-11T15:36:28.997Z,618
2023-02-11T15:37:28.775Z,565
2023-02-11T15:38:28.836Z,565
2023-02-11T15:39:28.814Z,565
2023-02-11T15:41:28.992Z,565
2023-02-11T15:42:28.803Z,589
2023-02-11T15:43:28.801Z,589
2023-02-11T15:44:28.801Z,589
2023-02-11T15:46:29.027Z,589
2023-02-11T15:47:28.797Z,611
2023-02-11T15:48:28.920Z,611
2023-02-11T15:49:28.780Z,611
2023-02-11T15:51:28.974Z,611
2023-02-11T15:52:28.772Z,627